createdAt,value
2022-08-01T00:00:49.525Z,32.47
2022-08-01T00:01:49.667Z,32.45
2022-08-01T00:02:49.606Z,32.55
2022-08-01T00:03:49.525Z,32.45
2022-08-01T00:04:49.526Z,32.47
2022-08-01T00:05:49.528Z,32.37
2022-08-01T00:06:49.530Z,32.65
2022-08-01T00:07:49.530Z,32.18
2022-08-01T00:08:49.530Z,32.47
2022-08-01T00:09:49.531Z,32.47
2022-08-01T00:10:49.533Z,32.45
2022-08-01T00:11:49.532Z,32.45
2022-08-01T00:12:49.535Z,32.45
2022-08-01T00:13:49.536Z,32.35
2022-08-01T00:14:49.537Z,32.28
2022-08-01T00:15:54.122Z,32.17
2022-08-01T00:16:49.538Z,32.35
2022-08-01T00:17:49.536Z,32.37
2022-08-01T00:18:49.538Z,32.45
2022-08-01T00:19:49.539Z,32.35
2022-08-01T00:20:49.542Z,32.28
2022-08-01T00:21:52.092Z,32.57
2022-08-01T00:22:49.542Z,32.86
2022-08-01T00:23:49.545Z,32.75
2022-08-01T00:24:49.544Z,32.84
2022-08-01T00:25:49.543Z,32.55
2022-08-01T00:26:49.545Z,32.57
2022-08-01T00:27:49.546Z,32.67
2022-08-01T00:28:49.555Z,32.65
2022-08-01T00:30:12.271Z,32.67
2022-08-01T00:30:49.547Z,32.55
2022-08-01T00:31:49.548Z,32.55
2022-08-01T00:32:49.549Z,32.67
2022-08-01T00:33:49.550Z,33.06
2022-08-01T00:34:49.554Z,32.55
2022-08-01T00:35:49.555Z,32.55
2022-08-01T00:36:49.555Z,32.94
2022-08-01T00:37:49.553Z,32.75
2022-08-01T00:38:49.556Z,32.55
2022-08-01T00:39:49.555Z,32.65
2022-08-01T00:40:49.556Z,32.84
2022-08-01T00:41:49.555Z,32.65
2022-08-01T00:42:49.557Z,32.96
2022-08-01T00:43:49.558Z,32.86
2022-08-01T00:44:49.560Z,32.75
2022-08-01T00:45:49.561Z,32.84
2022-08-01T00:46:49.566Z,32.65
2022-08-01T00:47:55.195Z,32.75
2022-08-01T00:48:49.648Z,32.86
2022-08-01T00:49:49.562Z,32.55
2022-08-01T00:50:49.565Z,32.94
2022-08-01T00:51:49.564Z,32.75
2022-08-01T00:52:50.098Z,32.84
2022-08-01T00:53:50.969Z,32.45
2022-08-01T00:54:49.572Z,32.67
2022-08-01T00:55:49.566Z,33.04
2022-08-01T00:56:49.569Z,32.86
2022-08-01T00:58:03.407Z,32.65
2022-08-01T00:58:49.569Z,32.94
2022-08-01T00:59:49.571Z,32.94
2022-08-01T01:00:53.683Z,33.04
2022-08-01T01:01:50.017Z,32.86
2022-08-01T01:02:49.575Z,33.04
2022-08-01T01:03:59.124Z,32.94
2022-08-01T01:04:49.576Z,33.04
2022-08-01T01:05:49.576Z,33.04
2022-08-01T01:06:49.577Z,33.06
2022-08-01T01:07:50.173Z,33.15
2022-08-01T01:08:49.579Z,33.14
2022-08-01T01:09:49.578Z,33.04
2022-08-01T01:10:49.581Z,33.04
2022-08-01T01:11:49.580Z,33.14
2022-08-01T01:12:50.243Z,33.25
2022-08-01T01:13:50.358Z,33.04
2022-08-01T01:14:49.584Z,33.06
2022-08-01T01:15:49.583Z,32.94
2022-08-01T01:16:49.585Z,33.04
2022-08-01T01:17:51.855Z,33.04
2022-08-01T01:18:49.586Z,33.14
2022-08-01T01:19:49.587Z,33.23
2022-08-01T01:20:49.587Z,33.23
2022-08-01T01:21:49.587Z,33.15
2022-08-01T01:22:49.589Z,33.04
2022-08-01T01:23:49.590Z,33.06
2022-08-01T01:24:49.592Z,33.14
2022-08-01T01:25:49.591Z,33.23
2022-08-01T01:26:49.593Z,33.25
2022-08-01T01:27:49.594Z,33.34
2022-08-01T01:28:49.594Z,33.23
2022-08-01T01:29:59.449Z,33.14
2022-08-01T01:30:49.596Z,32.94
2022-08-01T01:31:49.597Z,33.23
2022-08-01T01:32:49.597Z,33.04
2022-08-01T01:33:49.597Z,32.94
2022-08-01T01:34:49.599Z,33.62
2022-08-01T01:35:49.599Z,33.04
2022-08-01T01:36:49.607Z,33.04
2022-08-01T01:37:49.601Z,32.94
2022-08-01T01:38:49.603Z,33.43
2022-08-01T01:39:54.346Z,32.94
2022-08-01T01:40:49.603Z,32.75
2022-08-01T01:41:49.604Z,33.14
2022-08-01T01:42:49.609Z,32.94
2022-08-01T01:43:49.607Z,33.62
2022-08-01T01:44:49.607Z,33.33
2022-08-01T01:45:49.607Z,33.14
2022-08-01T01:46:49.609Z,33.23
2022-08-01T01:47:49.610Z,32.84
2022-08-01T01:48:49.664Z,33.04
2022-08-01T01:49:49.611Z,33.14
2022-08-01T01:50:49.613Z,32.94
2022-08-01T01:52:02.122Z,33.04
2022-08-01T01:52:49.614Z,33.43
2022-08-01T01:53:49.615Z,33.23
2022-08-01T01:54:49.617Z,33.33
2022-08-01T01:55:50.250Z,32.94
2022-08-01T01:56:49.627Z,33.33
2022-08-01T01:57:49.617Z,33.53
2022-08-01T01:58:49.618Z,33.43
2022-08-01T01:59:49.632Z,33.14
2022-08-01T02:00:50.438Z,33.34
2022-08-01T02:02:05.209Z,33.04
2022-08-01T02:02:49.729Z,32.84
2022-08-01T02:03:49.623Z,33.34
2022-08-01T02:04:49.623Z,33.23
2022-08-01T02:05:49.622Z,33.53
2022-08-01T02:06:49.625Z,33.14
2022-08-01T02:07:49.625Z,33.34
2022-08-01T02:08:49.626Z,33.14
2022-08-01T02:09:49.627Z,33.14
2022-08-01T02:10:49.629Z,33.23
2022-08-01T02:12:08.377Z,33.23
2022-08-01T02:12:49.631Z,33.33
2022-08-01T02:13:49.630Z,33.23
2022-08-01T02:14:49.636Z,33.33
2022-08-01T02:15:59.750Z,33.23
2022-08-01T02:16:49.633Z,33.33
2022-08-01T02:17:49.665Z,33.33
2022-08-01T02:18:49.637Z,33.33
2022-08-01T02:19:49.635Z,33.34
2022-08-01T02:20:49.636Z,33.33
2022-08-01T02:21:49.637Z,33.23
2022-08-01T02:22:49.641Z,33.23
2022-08-01T02:23:49.639Z,33.43
2022-08-01T02:24:49.639Z,33.72
2022-08-01T02:26:10.924Z,33.33
2022-08-01T02:26:49.641Z,33.33
2022-08-01T02:27:49.645Z,33.33
2022-08-01T02:28:49.647Z,33.33
2022-08-01T02:29:49.642Z,32.84
2022-08-01T02:30:49.645Z,33.33
2022-08-01T02:31:49.644Z,33.33
2022-08-01T02:32:49.646Z,33.33
2022-08-01T02:33:49.645Z,33.34
2022-08-01T02:34:49.647Z,33.33
2022-08-01T02:36:30.521Z,33.33
2022-08-01T02:36:49.650Z,33.33
2022-08-01T02:37:49.649Z,33.23
2022-08-01T02:38:49.651Z,33.23
2022-08-01T02:39:49.654Z,33.23
2022-08-01T02:40:49.653Z,33.44
2022-08-01T02:41:49.653Z,33.33
2022-08-01T02:42:49.654Z,33.33
2022-08-01T02:43:50.841Z,33.25
2022-08-01T02:44:49.655Z,33.23
2022-08-01T02:45:49.658Z,33.33
2022-08-01T02:46:49.658Z,33.43
2022-08-01T02:47:49.658Z,33.62
2022-08-01T02:48:49.701Z,33.54
2022-08-01T02:49:53.206Z,33.72
2022-08-01T02:50:49.661Z,33.43
2022-08-01T02:51:49.662Z,33.72
2022-08-01T02:52:49.663Z,33.33
2022-08-01T02:53:49.663Z,33.43
2022-08-01T02:54:49.664Z,33.43
2022-08-01T02:55:49.664Z,33.33
2022-08-01T02:56:49.665Z,33.62
2022-08-01T02:57:52.387Z,33.72
2022-08-01T02:58:49.666Z,33.72
2022-08-01T02:59:49.667Z,33.72
2022-08-01T03:00:49.668Z,33.53
2022-08-01T03:01:49.799Z,33.72
2022-08-01T03:02:49.670Z,33.43
2022-08-01T03:03:49.670Z,33.54
2022-08-01T03:04:52.720Z,33.72
2022-08-01T03:05:49.672Z,33.72
2022-08-01T03:06:49.673Z,33.81
2022-08-01T03:07:49.677Z,33.62
2022-08-01T03:08:49.684Z,33.81
2022-08-01T03:09:49.675Z,33.72
2022-08-01T03:10:49.675Z,33.62
2022-08-01T03:11:49.678Z,33.72
2022-08-01T03:12:49.679Z,33.62
2022-08-01T03:13:49.680Z,33.44
2022-08-01T03:14:50.361Z,33.53
2022-08-01T03:15:49.679Z,34.12
2022-08-01T03:16:49.680Z,33.62
2022-08-01T03:17:49.680Z,33.72
2022-08-01T03:18:49.683Z,33.53
2022-08-01T03:19:49.683Z,33.62
2022-08-01T03:20:49.687Z,34.01
2022-08-01T03:21:49.687Z,34.01
2022-08-01T03:22:49.689Z,33.81
2022-08-01T03:23:54.733Z,34.01
2022-08-01T03:24:49.688Z,34.03
2022-08-01T03:25:49.688Z,34.11
2022-08-01T03:26:49.693Z,34.01
2022-08-01T03:27:49.690Z,33.81
2022-08-01T03:28:49.694Z,33.81
2022-08-01T03:29:49.691Z,33.81
2022-08-01T03:30:49.692Z,33.72
2022-08-01T03:31:49.693Z,33.72
2022-08-01T03:32:49.694Z,33.72
2022-08-01T03:33:49.693Z,33.81
2022-08-01T03:34:49.696Z,33.72
2022-08-01T03:35:49.697Z,33.91
2022-08-01T03:36:49.945Z,33.72
2022-08-01T03:38:14.865Z,33.81
2022-08-01T03:38:49.697Z,33.72
2022-08-01T03:39:49.701Z,33.72
2022-08-01T03:40:49.698Z,33.91
2022-08-01T03:41:53.619Z,33.81
2022-08-01T03:42:49.701Z,33.81
2022-08-01T03:43:49.703Z,33.91
2022-08-01T03:44:49.701Z,34.01
2022-08-01T03:45:49.706Z,33.91
2022-08-01T03:46:49.703Z,34.11
2022-08-01T03:47:49.705Z,33.91
2022-08-01T03:48:49.774Z,34.01
2022-08-01T03:49:49.707Z,33.81
2022-08-01T03:50:49.714Z,33.91
2022-08-01T03:51:49.708Z,33.91
2022-08-01T03:52:49.707Z,33.72
2022-08-01T03:53:49.711Z,33.91
2022-08-01T03:54:49.711Z,34.01
2022-08-01T03:55:49.712Z,33.81
2022-08-01T03:56:49.711Z,34.20
2022-08-01T03:57:49.713Z,34.30
2022-08-01T03:58:49.934Z,34.01
2022-08-01T03:59:49.715Z,34.01
2022-08-01T04:00:49.714Z,34.11
2022-08-01T04:01:49.809Z,34.50
2022-08-01T04:02:49.726Z,34.30
2022-08-01T04:03:49.718Z,33.91
2022-08-01T04:04:49.719Z,34.30
2022-08-01T04:05:49.719Z,34.30
2022-08-01T04:06:49.721Z,34.30
2022-08-01T04:07:49.722Z,34.30
2022-08-01T04:08:49.720Z,34.20
2022-08-01T04:09:49.722Z,34.30
2022-08-01T04:10:50.434Z,34.40
2022-08-01T04:11:49.724Z,34.20
2022-08-01T04:12:49.730Z,34.30
2022-08-01T04:13:49.726Z,34.30
2022-08-01T04:14:49.727Z,34.11
2022-08-01T04:15:49.729Z,34.30
2022-08-01T04:16:49.726Z,34.20
2022-08-01T04:17:49.727Z,34.20
2022-08-01T04:18:49.727Z,34.20
2022-08-01T04:19:49.732Z,34.30
2022-08-01T04:20:49.730Z,33.81
2022-08-01T04:21:49.734Z,34.11
2022-08-01T04:22:49.733Z,34.01
2022-08-01T04:23:51.607Z,33.81
2022-08-01T04:24:54.531Z,34.01
2022-08-01T04:25:49.733Z,34.01
2022-08-01T04:26:49.733Z,34.20
2022-08-01T04:27:51.777Z,34.30
2022-08-01T04:28:49.735Z,34.59
2022-08-01T04:29:49.781Z,34.50
2022-08-01T04:30:49.737Z,34.40
2022-08-01T04:31:49.740Z,34.30
2022-08-01T04:32:49.737Z,34.30
2022-08-01T04:33:49.739Z,34.20
2022-08-01T04:34:49.814Z,34.40
2022-08-01T04:36:03.720Z,34.40
2022-08-01T04:36:49.743Z,34.50
2022-08-01T04:37:49.743Z,34.40
2022-08-01T04:38:49.744Z,34.50
2022-08-01T04:39:50.252Z,34.88
2022-08-01T04:40:49.743Z,34.40
2022-08-01T04:41:49.745Z,34.59
2022-08-01T04:42:49.746Z,34.50
2022-08-01T04:43:49.749Z,34.40
2022-08-01T04:44:49.748Z,34.79
2022-08-01T04:45:49.750Z,34.40
2022-08-01T04:46:49.749Z,34.50
2022-08-01T04:47:49.757Z,34.59
2022-08-01T04:48:49.820Z,34.98
2022-08-01T04:49:49.790Z,34.79
2022-08-01T04:50:49.756Z,34.88
2022-08-01T04:51:49.754Z,34.50
2022-08-01T04:52:49.904Z,34.79
2022-08-01T04:53:49.755Z,34.79
2022-08-01T04:54:49.757Z,34.79
2022-08-01T04:55:49.757Z,34.88
2022-08-01T04:56:51.423Z,34.79
2022-08-01T04:57:49.760Z,34.69
2022-08-01T04:58:49.760Z,34.88
2022-08-01T04:59:49.761Z,35.08
2022-08-01T05:00:49.829Z,34.98
2022-08-01T05:01:49.842Z,34.79
2022-08-01T05:02:49.762Z,34.69
2022-08-01T05:03:49.763Z,34.69
2022-08-01T05:04:49.763Z,34.79
2022-08-01T05:05:49.763Z,34.69
2022-08-01T05:06:49.765Z,34.69
2022-08-01T05:07:49.767Z,34.88
2022-08-01T05:08:49.770Z,34.69
2022-08-01T05:09:49.771Z,34.79
2022-08-01T05:10:49.766Z,35.08
2022-08-01T05:11:49.770Z,34.69
2022-08-01T05:12:49.768Z,34.88
2022-08-01T05:13:49.770Z,35.17
2022-08-01T05:14:49.771Z,35.17
2022-08-01T05:15:49.773Z,35.17
2022-08-01T05:16:49.772Z,34.88
2022-08-01T05:17:49.773Z,34.79
2022-08-01T05:18:49.774Z,34.88
2022-08-01T05:19:49.775Z,34.69
2022-08-01T05:20:49.774Z,35.08
2022-08-01T05:21:49.776Z,34.79
2022-08-01T05:22:49.777Z,35.08
2022-08-01T05:23:49.779Z,35.17
2022-08-01T05:24:49.777Z,34.79
2022-08-01T05:25:57.713Z,34.59
2022-08-01T05:26:49.780Z,34.98
2022-08-01T05:27:51.108Z,34.59
2022-08-01T05:28:49.779Z,34.98
2022-08-01T05:29:49.783Z,34.88
2022-08-01T05:30:49.782Z,35.08
2022-08-01T05:31:49.784Z,35.08
2022-08-01T05:32:49.784Z,34.59
2022-08-01T05:33:49.785Z,35.08
2022-08-01T05:34:49.786Z,34.88
2022-08-01T05:35:49.791Z,34.98
2022-08-01T05:36:52.919Z,34.98
2022-08-01T05:37:49.790Z,34.98
2022-08-01T05:38:49.789Z,34.88
2022-08-01T05:39:49.791Z,35.08
2022-08-01T05:40:49.795Z,34.98
2022-08-01T05:41:49.791Z,34.88
2022-08-01T05:42:49.790Z,34.88
2022-08-01T05:43:49.794Z,35.08
2022-08-01T05:44:49.794Z,34.88
2022-08-01T05:45:49.794Z,34.98
2022-08-01T05:46:49.797Z,34.88
2022-08-01T05:47:49.797Z,34.98
2022-08-01T05:48:49.841Z,34.98
2022-08-01T05:49:49.796Z,34.98
2022-08-01T05:50:49.798Z,34.98
2022-08-01T05:51:49.800Z,34.98
2022-08-01T05:52:49.798Z,34.88
2022-08-01T05:53:49.800Z,34.88
2022-08-01T05:54:49.800Z,34.98
2022-08-01T05:55:49.803Z,34.88
2022-08-01T05:56:49.804Z,34.88
2022-08-01T05:57:49.803Z,34.88
2022-08-01T05:58:49.803Z,34.98
2022-08-01T05:59:49.807Z,35.17
2022-08-01T06:00:49.809Z,35.27
2022-08-01T06:01:49.889Z,34.98
2022-08-01T06:02:49.811Z,35.17
2022-08-01T06:03:49.810Z,35.17
2022-08-01T06:04:49.807Z,35.27
2022-08-01T06:05:49.809Z,35.27
2022-08-01T06:06:49.809Z,35.17
2022-08-01T06:07:49.811Z,35.17
2022-08-01T06:08:49.819Z,35.27
2022-08-01T06:09:49.814Z,35.27
2022-08-01T06:10:49.811Z,35.37
2022-08-01T06:11:49.813Z,35.17
2022-08-01T06:12:49.813Z,35.17
2022-08-01T06:13:49.815Z,35.27
2022-08-01T06:14:49.816Z,35.37
2022-08-01T06:15:49.818Z,35.57
2022-08-01T06:16:49.817Z,35.17
2022-08-01T06:17:49.817Z,35.57
2022-08-01T06:18:52.796Z,35.27
2022-08-01T06:19:49.819Z,35.08
2022-08-01T06:20:49.820Z,35.57
2022-08-01T06:21:49.822Z,35.57
2022-08-01T06:22:51.775Z,35.66
2022-08-01T06:23:49.824Z,35.47
2022-08-01T06:24:49.821Z,35.57
2022-08-01T06:25:49.824Z,35.47
2022-08-01T06:26:49.824Z,35.76
2022-08-01T06:27:49.825Z,35.57
2022-08-01T06:28:49.825Z,35.66
2022-08-01T06:29:51.156Z,35.47
2022-08-01T06:30:49.826Z,35.57
2022-08-01T06:31:49.828Z,35.57
2022-08-01T06:32:49.828Z,35.66
2022-08-01T06:33:49.828Z,35.66
2022-08-01T06:34:49.831Z,35.76
2022-08-01T06:35:49.832Z,35.76
2022-08-01T06:36:49.831Z,35.96
2022-08-01T06:37:49.832Z,35.76
2022-08-01T06:38:49.833Z,35.76
2022-08-01T06:39:49.833Z,35.86
2022-08-01T06:40:49.833Z,35.86
2022-08-01T06:41:49.835Z,35.57
2022-08-01T06:42:49.835Z,36.05
2022-08-01T06:43:49.840Z,35.86
2022-08-01T06:44:49.836Z,35.76
2022-08-01T06:45:49.842Z,35.86
2022-08-01T06:46:49.839Z,35.96
2022-08-01T06:47:50.908Z,35.86
2022-08-01T06:48:49.907Z,35.96
2022-08-01T06:49:49.842Z,35.86
2022-08-01T06:50:49.842Z,35.86
2022-08-01T06:51:49.843Z,35.96
2022-08-01T06:52:49.844Z,35.96
2022-08-01T06:53:49.843Z,35.76
2022-08-01T06:54:49.844Z,35.86
2022-08-01T06:55:49.846Z,36.05
2022-08-01T06:56:49.846Z,36.05
2022-08-01T06:57:49.848Z,35.96
2022-08-01T06:58:49.848Z,35.76
2022-08-01T06:59:54.295Z,35.66
2022-08-01T07:00:52.545Z,35.76
2022-08-01T07:01:49.849Z,35.66
2022-08-01T07:02:49.853Z,35.76
2022-08-01T07:03:53.320Z,35.76
2022-08-01T07:04:49.852Z,35.66
2022-08-01T07:05:49.853Z,35.76
2022-08-01T07:06:49.851Z,35.96
2022-08-01T07:07:49.855Z,35.76
2022-08-01T07:08:49.855Z,35.76
2022-08-01T07:09:49.857Z,35.86
2022-08-01T07:10:49.854Z,35.76
2022-08-01T07:11:49.856Z,35.76
2022-08-01T07:12:49.859Z,36.15
2022-08-01T07:13:49.867Z,35.76
2022-08-01T07:14:49.859Z,35.76
2022-08-01T07:15:49.862Z,35.86
2022-08-01T07:16:49.860Z,35.76
2022-08-01T07:17:49.861Z,35.76
2022-08-01T07:18:49.860Z,35.86
2022-08-01T07:19:49.868Z,35.76
2022-08-01T07:20:51.870Z,35.86
2022-08-01T07:21:50.188Z,35.86
2022-08-01T07:22:49.865Z,35.66
2022-08-01T07:23:49.868Z,35.96
2022-08-01T07:24:49.865Z,35.76
2022-08-01T07:25:50.099Z,35.86
2022-08-01T07:26:53.595Z,35.86
2022-08-01T07:27:49.870Z,35.86
2022-08-01T07:28:49.868Z,35.76
2022-08-01T07:29:49.869Z,36.15
2022-08-01T07:30:49.870Z,35.86
2022-08-01T07:31:49.872Z,35.86
2022-08-01T07:32:49.873Z,35.76
2022-08-01T07:33:49.872Z,35.76
2022-08-01T07:34:49.875Z,35.96
2022-08-01T07:35:49.876Z,35.86
2022-08-01T07:36:49.873Z,35.76
2022-08-01T07:37:49.877Z,35.86
2022-08-01T07:38:49.877Z,35.76
2022-08-01T07:39:49.878Z,35.96
2022-08-01T07:40:49.876Z,35.76
2022-08-01T07:42:05.986Z,36.05
2022-08-01T07:42:49.878Z,35.96
2022-08-01T07:43:56.701Z,35.96
2022-08-01T07:44:49.880Z,35.76
2022-08-01T07:45:49.881Z,35.86
2022-08-01T07:46:49.881Z,35.96
2022-08-01T07:47:49.883Z,35.86
2022-08-01T07:48:49.935Z,35.76
2022-08-01T07:49:49.885Z,35.76
2022-08-01T07:50:49.884Z,35.86
2022-08-01T07:52:03.172Z,35.96
2022-08-01T07:52:49.887Z,36.05
2022-08-01T07:53:49.887Z,35.86
2022-08-01T07:54:52.238Z,36.15
2022-08-01T07:55:49.890Z,35.76
2022-08-01T07:56:49.890Z,35.76
2022-08-01T07:57:49.890Z,35.76
2022-08-01T07:58:49.892Z,36.15
2022-08-01T07:59:49.894Z,35.76
2022-08-01T08:00:49.892Z,35.76
2022-08-01T08:01:49.955Z,35.86
2022-08-01T08:02:49.896Z,36.05
2022-08-01T08:03:49.894Z,35.86
2022-08-01T08:04:49.897Z,35.76
2022-08-01T08:05:57.730Z,36.05
2022-08-01T08:06:49.898Z,35.76
2022-08-01T08:07:49.898Z,36.05
2022-08-01T08:08:49.900Z,35.76
2022-08-01T08:09:51.334Z,35.86
2022-08-01T08:10:49.902Z,35.76
2022-08-01T08:11:49.899Z,35.66
2022-08-01T08:12:49.901Z,36.05
2022-08-01T08:13:49.903Z,36.05
2022-08-01T08:14:49.903Z,35.76
2022-08-01T08:15:49.905Z,36.05
2022-08-01T08:16:49.904Z,35.66
2022-08-01T08:17:54.983Z,35.86
2022-08-01T08:18:49.906Z,35.96
2022-08-01T08:19:49.908Z,35.27
2022-08-01T08:20:50.211Z,35.96
2022-08-01T08:21:49.907Z,35.86
2022-08-01T08:22:49.909Z,35.96
2022-08-01T08:23:49.910Z,35.96
2022-08-01T08:24:49.910Z,35.76
2022-08-01T08:25:49.914Z,35.66
2022-08-01T08:26:52.158Z,35.86
2022-08-01T08:27:49.914Z,35.86
2022-08-01T08:28:49.914Z,35.66
2022-08-01T08:29:49.916Z,35.66
2022-08-01T08:30:49.916Z,36.15
2022-08-01T08:31:52.369Z,36.05
2022-08-01T08:32:49.920Z,35.76
2022-08-01T08:33:49.917Z,35.76
2022-08-01T08:34:49.919Z,35.86
2022-08-01T08:35:53.770Z,35.57
2022-08-01T08:36:49.921Z,35.66
2022-08-01T08:37:49.986Z,35.66
2022-08-01T08:38:49.923Z,35.47
2022-08-01T08:39:49.922Z,35.57
2022-08-01T08:40:49.924Z,35.57
2022-08-01T08:41:50.233Z,35.47
2022-08-01T08:42:49.925Z,35.57
2022-08-01T08:43:49.926Z,35.66
2022-08-01T08:44:49.927Z,35.17
2022-08-01T08:45:56.228Z,35.27
2022-08-01T08:46:49.936Z,35.08
2022-08-01T08:47:49.929Z,35.66
2022-08-01T08:48:49.979Z,35.57
2022-08-01T08:49:50.052Z,35.57
2022-08-01T08:50:49.931Z,35.27
2022-08-01T08:51:49.934Z,35.27
2022-08-01T08:52:49.932Z,35.27
2022-08-01T08:53:49.934Z,35.27
2022-08-01T08:54:49.936Z,35.27
2022-08-01T08:55:55.791Z,35.27
2022-08-01T08:56:49.940Z,35.17
2022-08-01T08:57:49.936Z,35.17
2022-08-01T08:58:49.937Z,35.17
2022-08-01T08:59:49.944Z,35.27
2022-08-01T09:00:49.942Z,34.98
2022-08-01T09:01:49.939Z,35.37
2022-08-01T09:02:50.050Z,35.17
2022-08-01T09:03:49.942Z,34.88
2022-08-01T09:04:49.945Z,34.79
2022-08-01T09:05:49.944Z,35.17
2022-08-01T09:06:49.945Z,35.19
2022-08-01T09:07:49.944Z,34.79
2022-08-01T09:08:49.946Z,34.98
2022-08-01T09:09:49.946Z,35.08
2022-08-01T09:10:49.947Z,35.08
2022-08-01T09:12:05.126Z,35.37
2022-08-01T09:12:49.949Z,35.08
2022-08-01T09:13:49.948Z,35.17
2022-08-01T09:14:49.951Z,35.17
2022-08-01T09:15:49.951Z,35.17
2022-08-01T09:16:49.953Z,34.98
2022-08-01T09:17:49.953Z,35.08
2022-08-01T09:18:53.563Z,35.08
2022-08-01T09:19:49.953Z,35.17
2022-08-01T09:20:49.957Z,35.08
2022-08-01T09:21:49.955Z,34.98
2022-08-01T09:22:49.960Z,34.98
2022-08-01T09:23:53.349Z,34.88
2022-08-01T09:24:49.957Z,35.19
2022-08-01T09:25:49.959Z,34.90
2022-08-01T09:26:49.959Z,34.98
2022-08-01T09:27:49.960Z,34.88
2022-08-01T09:28:49.963Z,34.88
2022-08-01T09:30:01.134Z,34.88
2022-08-01T09:30:49.963Z,34.88
2022-08-01T09:31:49.964Z,34.88
2022-08-01T09:32:49.966Z,34.88
2022-08-01T09:33:50.731Z,34.88
2022-08-01T09:34:49.968Z,34.90
2022-08-01T09:35:49.966Z,34.79
2022-08-01T09:36:49.971Z,34.88
2022-08-01T09:37:49.969Z,34.88
2022-08-01T09:38:50.969Z,35.08
2022-08-01T09:39:49.971Z,34.79
2022-08-01T09:40:49.970Z,34.98
2022-08-01T09:41:49.972Z,34.98
2022-08-01T09:42:49.972Z,35.00
2022-08-01T09:43:50.051Z,34.88
2022-08-01T09:44:54.280Z,35.08
2022-08-01T09:45:50.693Z,34.98
2022-08-01T09:46:49.977Z,34.98
2022-08-01T09:47:49.982Z,35.08
2022-08-01T09:48:50.060Z,34.98
2022-08-01T09:49:52.198Z,34.98
2022-08-01T09:50:49.983Z,34.88
2022-08-01T09:51:59.816Z,35.17
2022-08-01T09:52:50.081Z,34.98
2022-08-01T09:53:52.569Z,35.08
2022-08-01T09:54:49.984Z,35.00
2022-08-01T09:55:49.984Z,34.98
2022-08-01T09:56:49.985Z,35.08
2022-08-01T09:57:49.983Z,34.98
2022-08-01T09:58:53.704Z,34.88
2022-08-01T09:59:59.723Z,34.98
2022-08-01T10:00:49.988Z,34.98
2022-08-01T10:01:49.995Z,34.98
2022-08-01T10:02:49.990Z,34.79
2022-08-01T10:03:50.048Z,34.90
2022-08-01T10:04:50.721Z,34.79
2022-08-01T10:05:50.274Z,34.98
2022-08-01T10:06:49.992Z,35.08
2022-08-01T10:07:49.993Z,34.98
2022-08-01T10:08:49.993Z,35.00
2022-08-01T10:09:49.996Z,34.98
2022-08-01T10:10:49.996Z,35.08
2022-08-01T10:11:49.996Z,34.79
2022-08-01T10:12:49.999Z,35.00
2022-08-01T10:13:49.997Z,34.69
2022-08-01T10:14:50.375Z,34.69
2022-08-01T10:15:50.002Z,35.08
2022-08-01T10:16:53.223Z,35.00
2022-08-01T10:17:51.563Z,35.00
2022-08-01T10:18:50.006Z,35.10
2022-08-01T10:19:50.004Z,35.00
2022-08-01T10:20:50.004Z,34.98
2022-08-01T10:21:57.745Z,34.90
2022-08-01T10:22:50.009Z,35.08
2022-08-01T10:23:50.021Z,35.10
2022-08-01T10:24:50.010Z,35.00
2022-08-01T10:25:50.020Z,35.00
2022-08-01T10:26:50.009Z,34.80
2022-08-01T10:27:50.015Z,35.19
2022-08-01T10:28:50.020Z,34.90
2022-08-01T10:30:06.026Z,34.88
2022-08-01T10:30:50.026Z,34.70
2022-08-01T10:31:50.536Z,35.08
2022-08-01T10:32:50.798Z,35.08
2022-08-01T10:33:53.163Z,34.88
2022-08-01T10:34:50.023Z,34.80
2022-08-01T10:35:50.020Z,34.70
2022-08-01T10:36:50.020Z,34.88
2022-08-01T10:37:52.003Z,34.80
2022-08-01T10:38:50.019Z,34.69
2022-08-01T10:39:50.020Z,34.50
2022-08-01T10:40:50.051Z,34.90
2022-08-01T10:41:50.021Z,34.79
2022-08-01T10:42:50.024Z,34.59
2022-08-01T10:43:50.030Z,35.00
2022-08-01T10:44:50.027Z,34.50
2022-08-01T10:45:50.025Z,34.59
2022-08-01T10:46:50.029Z,34.70
2022-08-01T10:47:51.158Z,34.42
2022-08-01T10:48:50.098Z,34.61
2022-08-01T10:49:50.029Z,34.52
2022-08-01T10:50:50.030Z,34.59
2022-08-01T10:51:52.375Z,34.40
2022-08-01T10:52:50.032Z,34.42
2022-08-01T10:53:50.031Z,34.32
2022-08-01T10:54:52.616Z,34.20
2022-08-01T10:55:50.033Z,34.20
2022-08-01T10:56:50.045Z,34.22
2022-08-01T10:57:52.920Z,34.30
2022-08-01T10:58:50.038Z,34.03
2022-08-01T11:00:00.986Z,34.03
2022-08-01T11:00:50.040Z,34.20
2022-08-01T11:01:50.100Z,34.12
2022-08-01T11:02:50.042Z,34.01
2022-08-01T11:03:57.512Z,33.81
2022-08-01T11:04:50.042Z,34.20
2022-08-01T11:05:50.049Z,34.11
2022-08-01T11:06:50.044Z,34.12
2022-08-01T11:07:50.045Z,34.20
2022-08-01T11:08:50.047Z,34.20
2022-08-01T11:09:51.932Z,34.32
2022-08-01T11:10:50.050Z,34.32
2022-08-01T11:11:50.050Z,34.40
2022-08-01T11:12:50.049Z,34.32
2022-08-01T11:13:50.049Z,34.30
2022-08-01T11:14:55.665Z,34.12
2022-08-01T11:15:50.971Z,34.11
2022-08-01T11:16:50.054Z,34.32
2022-08-01T11:17:50.053Z,34.32
2022-08-01T11:18:50.057Z,34.11
2022-08-01T11:19:50.056Z,34.03
2022-08-01T11:20:50.061Z,33.93
2022-08-01T11:21:56.244Z,34.01
2022-08-01T11:22:50.059Z,34.01
2022-08-01T11:23:50.063Z,33.93
2022-08-01T11:24:51.051Z,33.83
2022-08-01T11:26:05.561Z,33.93
2022-08-01T11:26:50.066Z,33.91
2022-08-01T11:27:50.063Z,33.93
2022-08-01T11:29:11.187Z,34.03
2022-08-01T11:29:50.064Z,33.83
2022-08-01T11:30:50.067Z,33.83
2022-08-01T11:31:50.066Z,33.83
2022-08-01T11:33:10.299Z,33.83
2022-08-01T11:33:50.067Z,33.73
2022-08-01T11:34:50.073Z,33.73
2022-08-01T11:35:50.072Z,33.64
2022-08-01T11:36:59.284Z,34.03
2022-08-01T11:37:50.073Z,33.93
2022-08-01T11:38:50.074Z,34.03
2022-08-01T11:39:50.073Z,33.64
2022-08-01T11:40:50.077Z,33.64
2022-08-01T11:41:50.090Z,33.64
2022-08-01T11:42:50.076Z,33.73
2022-08-01T11:43:50.078Z,33.64
2022-08-01T11:44:50.095Z,33.54
2022-08-01T11:45:50.083Z,33.83
2022-08-01T11:46:51.227Z,33.44
2022-08-01T11:47:50.261Z,33.44
2022-08-01T11:48:50.145Z,33.44
2022-08-01T11:49:50.112Z,33.34
2022-08-01T11:50:50.090Z,33.25
2022-08-01T11:51:50.085Z,33.44
2022-08-01T11:52:50.086Z,33.34
2022-08-01T11:53:50.236Z,33.14
2022-08-01T11:54:50.088Z,33.34
2022-08-01T11:55:51.209Z,33.34
2022-08-01T11:56:50.088Z,33.44
2022-08-01T11:57:50.089Z,33.25
2022-08-01T11:58:50.092Z,33.25
2022-08-01T12:00:02.899Z,33.15
2022-08-01T12:00:50.094Z,33.15
2022-08-01T12:01:50.093Z,33.06
2022-08-01T12:02:50.134Z,33.06
2022-08-01T12:03:50.095Z,33.06
2022-08-01T12:04:50.096Z,33.06
2022-08-01T12:05:50.096Z,33.25
2022-08-01T12:06:50.279Z,33.34
2022-08-01T12:07:50.105Z,33.34
2022-08-01T12:08:50.099Z,33.06
2022-08-01T12:09:50.102Z,33.06
2022-08-01T12:10:50.149Z,33.06
2022-08-01T12:11:50.104Z,32.96
2022-08-01T12:12:50.102Z,33.06
2022-08-01T12:13:50.104Z,33.06
2022-08-01T12:14:50.104Z,32.96
2022-08-01T12:15:54.744Z,32.96
2022-08-01T12:16:50.106Z,32.76
2022-08-01T12:17:58.648Z,32.67
2022-08-01T12:18:50.109Z,32.67
2022-08-01T12:19:50.111Z,32.86
2022-08-01T12:20:56.659Z,32.96
2022-08-01T12:21:53.253Z,32.57
2022-08-01T12:22:50.113Z,32.67
2022-08-01T12:23:50.116Z,32.57
2022-08-01T12:24:50.114Z,32.67
2022-08-01T12:25:50.116Z,32.57
2022-08-01T12:26:50.115Z,32.86
2022-08-01T12:27:54.347Z,32.37
2022-08-01T12:28:50.116Z,32.47
2022-08-01T12:29:50.120Z,32.37
2022-08-01T12:30:50.121Z,32.28
2022-08-01T12:31:50.122Z,32.47
2022-08-01T12:32:50.123Z,32.37
2022-08-01T12:33:50.122Z,32.37
2022-08-01T12:34:50.122Z,32.18
2022-08-01T12:35:50.128Z,32.08
2022-08-01T12:36:50.126Z,32.08
2022-08-01T12:37:50.129Z,32.28
2022-08-01T12:38:50.126Z,32.37
2022-08-01T12:39:50.129Z,32.57
2022-08-01T12:40:53.325Z,32.28
2022-08-01T12:41:50.131Z,32.28
2022-08-01T12:42:50.132Z,31.79
2022-08-01T12:43:50.132Z,32.18
2022-08-01T12:44:50.133Z,31.60
2022-08-01T12:45:56.523Z,31.98
2022-08-01T12:46:50.133Z,31.79
2022-08-01T12:47:50.135Z,31.50
2022-08-01T12:48:50.203Z,31.70
2022-08-01T12:49:50.137Z,31.79
2022-08-01T12:50:50.137Z,31.50
2022-08-01T12:51:57.481Z,31.40
2022-08-01T12:52:50.140Z,31.60